sensor_id;sensor_type;location;lat;lon;timestamp;P1;durP1;ratioP1;P2;durP2;ratioP2
31282;SDS011;17915;52.540;13.604;2023-06-19T00:01:41;12.60;;;9.37;;
31282;SDS011;17915;52.540;13.604;2023-06-19T00:04:06;13.23;;;9.67;;
31282;SDS011;17915;52.540;13.604;2023-06-19T00:06:33;11.05;;;10.07;;
31282;SDS011;17915;52.540;13.604;2023-06-19T00:08:58;10.30;;;9.30;;
31282;SDS011;17915;52.540;13.604;2023-06-19T00:11:24;10.83;;;9.97;;
31282;SDS011;17915;52.540;13.604;2023-06-19T00:13:49;12.80;;;11.47;;
31282;SDS011;17915;52.540;13.604;2023-06-19T00:16:15;13.60;;;11.00;;
31282;SDS011;17915;52.540;13.604;2023-06-19T00:18:40;12.47;;;11.33;;
31282;SDS011;17915;52.540;13.604;2023-06-19T00:21:06;12.17;;;11.07;;
31282;SDS011;17915;52.540;13.604;2023-06-19T00:25:57;12.70;;;11.30;;
31282;SDS011;17915;52.540;13.604;2023-06-19T00:28:26;12.02;;;10.90;;
31282;SDS011;17915;52.540;13.604;2023-06-19T00:30:51;13.93;;;12.50;;
31282;SDS011;17915;52.540;13.604;2023-06-19T00:33:17;15.27;;;10.87;;
31282;SDS011;17915;52.540;13.604;2023-06-19T00:35:42;16.60;;;12.27;;
31282;SDS011;17915;52.540;13.604;2023-06-19T00:38:08;13.68;;;11.10;;
31282;SDS011;17915;52.540;13.604;2023-06-19T00:40:34;13.33;;;12.07;;
31282;SDS011;17915;52.540;13.604;2023-06-19T00:43:00;12.90;;;11.70;;
31282;SDS011;17915;52.540;13.604;2023-06-19T00:45:26;13.55;;;12.13;;
31282;SDS011;17915;52.540;13.604;2023-06-19T00:47:52;13.30;;;11.88;;
31282;SDS011;17915;52.540;13.604;2023-06-19T00:50:18;12.65;;;11.48;;
31282;SDS011;17915;52.540;13.604;2023-06-19T00:52:44;14.60;;;13.18;;
31282;SDS011;17915;52.540;13.604;2023-06-19T00:55:10;14.37;;;12.97;;
31282;SDS011;17915;52.540;13.604;2023-06-19T00:57:36;13.43;;;12.17;;
31282;SDS011;17915;52.540;13.604;2023-06-19T01:00:02;12.57;;;11.57;;
31282;SDS011;17915;52.540;13.604;2023-06-19T01:02:31;15.20;;;12.13;;
31282;SDS011;17915;52.540;13.604;2023-06-19T01:04:57;13.00;;;11.87;;
31282;SDS011;17915;52.540;13.604;2023-06-19T01:07:27;13.43;;;12.17;;
31282;SDS011;17915;52.540;13.604;2023-06-19T01:09:58;13.05;;;11.63;;
31282;SDS011;17915;52.540;13.604;2023-06-19T01:12:40;14.95;;;13.32;;
31282;SDS011;17915;52.540;13.604;2023-06-19T01:15:13;12.45;;;11.38;;
31282;SDS011;17915;52.540;13.604;2023-06-19T01:17:39;13.35;;;11.95;;
31282;SDS011;17915;52.540;13.604;2023-06-19T01:20:04;13.33;;;12.07;;
31282;SDS011;17915;52.540;13.604;2023-06-19T01:22:33;18.60;;;12.23;;
31282;SDS011;17915;52.540;13.604;2023-06-19T01:24:59;13.47;;;12.17;;
31282;SDS011;17915;52.540;13.604;2023-06-19T01:27:25;12.00;;;11.10;;
31282;SDS011;17915;52.540;13.604;2023-06-19T01:29:51;13.52;;;12.23;;
31282;SDS011;17915;52.540;13.604;2023-06-19T01:32:25;13.77;;;12.13;;
31282;SDS011;17915;52.540;13.604;2023-06-19T01:34:57;40.97;;;15.00;;
31282;SDS011;17915;52.540;13.604;2023-06-19T01:39:52;13.45;;;12.15;;
31282;SDS011;17915;52.540;13.604;2023-06-19T01:42:20;12.98;;;11.70;;
31282;SDS011;17915;52.540;13.604;2023-06-19T01:44:45;14.00;;;12.60;;
31282;SDS011;17915;52.540;13.604;2023-06-19T01:47:11;15.73;;;12.80;;
31282;SDS011;17915;52.540;13.604;2023-06-19T01:49:37;13.95;;;12.73;;
31282;SDS011;17915;52.540;13.604;2023-06-19T01:52:03;14.45;;;12.75;;
31282;SDS011;17915;52.540;13.604;2023-06-19T01:54:29;14.75;;;13.25;;
31282;SDS011;17915;52.540;13.604;2023-06-19T01:56:54;14.83;;;13.10;;
31282;SDS011;17915;52.540;13.604;2023-06-19T01:59:20;13.60;;;12.32;;
31282;SDS011;17915;52.540;13.604;2023-06-19T02:01:46;15.95;;;13.98;;
31282;SDS011;17915;52.540;13.604;2023-06-19T02:04:11;14.33;;;13.03;;
31282;SDS011;17915;52.540;13.604;2023-06-19T02:06:37;14.90;;;13.50;;
31282;SDS011;17915;52.540;13.604;2023-06-19T02:09:02;15.93;;;14.40;;
31282;SDS011;17915;52.540;13.604;2023-06-19T02:11:28;14.83;;;13.47;;
31282;SDS011;17915;52.540;13.604;2023-06-19T02:13:53;18.83;;;16.83;;
31282;SDS011;17915;52.540;13.604;2023-06-19T02:16:18;14.30;;;13.10;;
31282;SDS011;17915;52.540;13.604;2023-06-19T02:18:44;15.73;;;14.23;;
31282;SDS011;17915;52.540;13.604;2023-06-19T02:21:09;13.90;;;12.67;;
31282;SDS011;17915;52.540;13.604;2023-06-19T02:23:34;13.90;;;12.47;;
31282;SDS011;17915;52.540;13.604;2023-06-19T02:26:00;13.67;;;12.00;;
31282;SDS011;17915;52.540;13.604;2023-06-19T02:28:25;15.53;;;14.13;;
31282;SDS011;17915;52.540;13.604;2023-06-19T02:30:52;14.87;;;13.47;;
31282;SDS011;17915;52.540;13.604;2023-06-19T02:33:18;16.73;;;14.35;;
31282;SDS011;17915;52.540;13.604;2023-06-19T02:35:44;13.50;;;12.30;;
31282;SDS011;17915;52.540;13.604;2023-06-19T02:38:09;15.48;;;13.98;;
31282;SDS011;17915;52.540;13.604;2023-06-19T02:40:35;13.73;;;12.30;;
31282;SDS011;17915;52.540;13.604;2023-06-19T02:43:00;13.90;;;12.50;;
31282;SDS011;17915;52.540;13.604;2023-06-19T02:45:26;15.47;;;13.97;;
31282;SDS011;17915;52.540;13.604;2023-06-19T02:47:51;16.30;;;14.10;;
31282;SDS011;17915;52.540;13.604;2023-06-19T02:50:17;16.40;;;13.82;;
31282;SDS011;17915;52.540;13.604;2023-06-19T02:52:42;15.53;;;13.90;;
31282;SDS011;17915;52.540;13.604;2023-06-19T02:55:08;14.30;;;13.03;;
31282;SDS011;17915;52.540;13.604;2023-06-19T02:57:33;14.70;;;13.20;;
31282;SDS011;17915;52.540;13.604;2023-06-19T02:59:58;15.23;;;13.70;;
31282;SDS011;17915;52.540;13.604;2023-06-19T03:02:24;14.80;;;13.30;;
31282;SDS011;17915;52.540;13.604;2023-06-19T03:04:50;16.98;;;14.90;;
31282;SDS011;17915;52.540;13.604;2023-06-19T03:07:17;17.85;;;14.98;;
31282;SDS011;17915;52.540;13.604;2023-06-19T03:09:42;15.87;;;14.30;;
31282;SDS011;17915;52.540;13.604;2023-06-19T03:12:08;14.60;;;13.10;;
31282;SDS011;17915;52.540;13.604;2023-06-19T03:16:59;24.67;;;15.90;;
31282;SDS011;17915;52.540;13.604;2023-06-19T03:19:24;14.93;;;13.43;;
31282;SDS011;17915;52.540;13.604;2023-06-19T03:21:50;15.63;;;12.87;;
31282;SDS011;17915;52.540;13.604;2023-06-19T03:24:15;18.73;;;14.67;;
31282;SDS011;17915;52.540;13.604;2023-06-19T03:26:41;15.10;;;13.80;;
31282;SDS011;17915;52.540;13.604;2023-06-19T03:29:06;15.33;;;13.73;;
31282;SDS011;17915;52.540;13.604;2023-06-19T03:31:32;18.20;;;14.67;;
31282;SDS011;17915;52.540;13.604;2023-06-19T03:33:57;14.33;;;12.93;;
31282;SDS011;17915;52.540;13.604;2023-06-19T03:36:22;14.40;;;13.10;;
31282;SDS011;17915;52.540;13.604;2023-06-19T03:38:48;17.40;;;12.73;;
31282;SDS011;17915;52.540;13.604;2023-06-19T03:41:13;14.57;;;13.20;;
31282;SDS011;17915;52.540;13.604;2023-06-19T03:43:39;14.27;;;12.97;;
31282;SDS011;17915;52.540;13.604;2023-06-19T03:46:04;12.48;;;11.27;;
31282;SDS011;17915;52.540;13.604;2023-06-19T03:48:30;12.80;;;11.70;;
31282;SDS011;17915;52.540;13.604;2023-06-19T03:50:55;16.43;;;12.57;;
31282;SDS011;17915;52.540;13.604;2023-06-19T03:53:21;13.27;;;12.03;;
31282;SDS011;17915;52.540;13.604;2023-06-19T03:55:46;14.32;;;12.93;;
31282;SDS011;17915;52.540;13.604;2023-06-19T03:58:12;15.40;;;12.00;;
31282;SDS011;17915;52.540;13.604;2023-06-19T04:00:37;13.70;;;12.47;;
31282;SDS011;17915;52.540;13.604;2023-06-19T04:03:02;15.17;;;11.87;;
31282;SDS011;17915;52.540;13.604;2023-06-19T04:05:28;12.88;;;11.77;;
31282;SDS011;17915;52.540;13.604;2023-06-19T04:07:53;14.23;;;12.87;;
31282;SDS011;17915;52.540;13.604;2023-06-19T04:10:19;16.23;;;12.97;;
31282;SDS011;17915;52.540;13.604;2023-06-19T04:12:44;13.97;;;12.63;;
31282;SDS011;17915;52.540;13.604;2023-06-19T04:15:10;19.10;;;13.50;;
31282;SDS011;17915;52.540;13.604;2023-06-19T04:17:35;14.75;;;13.32;;
31282;SDS011;17915;52.540;13.604;2023-06-19T04:20:01;13.60;;;12.57;;
31282;SDS011;17915;52.540;13.604;2023-06-19T04:22:31;13.63;;;12.38;;
31282;SDS011;17915;52.540;13.604;2023-06-19T04:24:57;14.87;;;13.10;;
31282;SDS011;17915;52.540;13.604;2023-06-19T04:27:22;15.93;;;14.27;;
31282;SDS011;17915;52.540;13.604;2023-06-19T04:29:48;15.40;;;13.97;;
31282;SDS011;17915;52.540;13.604;2023-06-19T04:32:13;14.13;;;12.83;;
31282;SDS011;17915;52.540;13.604;2023-06-19T04:34:38;16.13;;;14.53;;
31282;SDS011;17915;52.540;13.604;2023-06-19T04:37:06;15.20;;;13.25;;
31282;SDS011;17915;52.540;13.604;2023-06-19T04:39:32;14.15;;;12.85;;
31282;SDS011;17915;52.540;13.604;2023-06-19T04:41:58;13.80;;;12.35;;
31282;SDS011;17915;52.540;13.604;2023-06-19T04:44:25;16.20;;;13.80;;
31282;SDS011;17915;52.540;13.604;2023-06-19T04:46:50;17.50;;;14.17;;
31282;SDS011;17915;52.540;13.604;2023-06-19T04:49:16;14.30;;;12.90;;
31282;SDS011;17915;52.540;13.604;2023-06-19T04:51:41;15.43;;;13.90;;
31282;SDS011;17915;52.540;13.604;2023-06-19T04:54:07;13.30;;;12.15;;
31282;SDS011;17915;52.540;13.604;2023-06-19T04:56:32;16.23;;;14.73;;
31282;SDS011;17915;52.540;13.604;2023-06-19T04:58:58;21.23;;;14.10;;
31282;SDS011;17915;52.540;13.604;2023-06-19T05:01:25;14.88;;;13.38;;
31282;SDS011;17915;52.540;13.604;2023-06-19T05:03:53;20.38;;;12.88;;
31282;SDS011;17915;52.540;13.604;2023-06-19T05:06:19;14.40;;;13.20;;
31282;SDS011;17915;52.540;13.604;2023-06-19T05:08:45;13.85;;;12.65;;
31282;SDS011;17915;52.540;13.604;2023-06-19T05:11:10;13.97;;;12.73;;
31282;SDS011;17915;52.540;13.604;2023-06-19T05:13:36;16.50;;;12.93;;
31282;SDS011;17915;52.540;13.604;2023-06-19T05:16:01;13.10;;;12.00;;
31282;SDS011;17915;52.540;13.604;2023-06-19T05:18:27;14.73;;;13.43;;
31282;SDS011;17915;52.540;13.604;2023-06-19T05:20:52;15.47;;;13.97;;
31282;SDS011;17915;52.540;13.604;2023-06-19T05:23:18;15.70;;;14.13;;
31282;SDS011;17915;52.540;13.604;2023-06-19T05:25:43;17.30;;;14.37;;
31282;SDS011;17915;52.540;13.604;2023-06-19T05:28:08;14.97;;;12.60;;
31282;SDS011;17915;52.540;13.604;2023-06-19T05:30:34;15.43;;;13.00;;
31282;SDS011;17915;52.540;13.604;2023-06-19T05:33:00;19.45;;;13.45;;
31282;SDS011;17915;52.540;13.604;2023-06-19T05:35:25;14.32;;;12.52;;
31282;SDS011;17915;52.540;13.604;2023-06-19T05:37:51;15.48;;;13.15;;
31282;SDS011;17915;52.540;13.604;2023-06-19T05:40:17;14.30;;;13.03;;
31282;SDS011;17915;52.540;13.604;2023-06-19T05:42:42;18.30;;;13.13;;
31282;SDS011;17915;52.540;13.604;2023-06-19T05:45:08;14.47;;;13.07;;
31282;SDS011;17915;52.540;13.604;2023-06-19T05:47:33;13.55;;;12.15;;
31282;SDS011;17915;52.540;13.604;2023-06-19T05:49:59;27.73;;;14.73;;
31282;SDS011;17915;52.540;13.604;2023-06-19T05:52:24;15.07;;;13.50;;
31282;SDS011;17915;52.540;13.604;2023-06-19T05:54:51;15.43;;;13.33;;
31282;SDS011;17915;52.540;13.604;2023-06-19T05:57:19;17.95;;;14.20;;
31282;SDS011;17915;52.540;13.604;2023-06-19T05:59:47;13.65;;;12.38;;
31282;SDS011;17915;52.540;13.604;2023-06-19T06:02:13;15.03;;;12.87;;
31282;SDS011;17915;52.540;13.604;2023-06-19T06:04:38;16.87;;;13.00;;
31282;SDS011;17915;52.540;13.604;2023-06-19T06:07:04;14.70;;;13.37;;
31282;SDS011;17915;52.540;13.604;2023-06-19T06:09:30;16.75;;;13.05;;
31282;SDS011;17915;52.540;13.604;2023-06-19T06:11:55;15.57;;;13.97;;
31282;SDS011;17915;52.540;13.604;2023-06-19T06:14:20;14.10;;;12.80;;
31282;SDS011;17915;52.540;13.604;2023-06-19T06:16:46;15.50;;;14.00;;
31282;SDS011;17915;52.540;13.604;2023-06-19T06:19:11;14.33;;;13.00;;
31282;SDS011;17915;52.540;13.604;2023-06-19T06:21:37;15.07;;;13.43;;
31282;SDS011;17915;52.540;13.604;2023-06-19T06:24:02;14.17;;;12.87;;
31282;SDS011;17915;52.540;13.604;2023-06-19T06:26:28;16.20;;;13.77;;
31282;SDS011;17915;52.540;13.604;2023-06-19T06:28:53;15.75;;;13.88;;
31282;SDS011;17915;52.540;13.604;2023-06-19T06:31:20;13.85;;;12.40;;
31282;SDS011;17915;52.540;13.604;2023-06-19T06:33:46;17.30;;;12.95;;
31282;SDS011;17915;52.540;13.604;2023-06-19T06:36:14;15.77;;;14.23;;
31282;SDS011;17915;52.540;13.604;2023-06-19T06:38:39;14.98;;;13.48;;
31282;SDS011;17915;52.540;13.604;2023-06-19T06:41:05;15.30;;;13.80;;
31282;SDS011;17915;52.540;13.604;2023-06-19T06:43:30;13.77;;;12.07;;
31282;SDS011;17915;52.540;13.604;2023-06-19T06:45:56;16.87;;;12.03;;
31282;SDS011;17915;52.540;13.604;2023-06-19T06:48:21;16.20;;;13.53;;
31282;SDS011;17915;52.540;13.604;2023-06-19T06:50:46;13.07;;;11.87;;
31282;SDS011;17915;52.540;13.604;2023-06-19T06:53:12;14.83;;;12.07;;
31282;SDS011;17915;52.540;13.604;2023-06-19T06:55:37;22.27;;;13.80;;
31282;SDS011;17915;52.540;13.604;2023-06-19T06:58:03;14.70;;;12.93;;
31282;SDS011;17915;52.540;13.604;2023-06-19T07:00:28;13.90;;;12.43;;
31282;SDS011;17915;52.540;13.604;2023-06-19T07:02:54;13.95;;;12.75;;
31282;SDS011;17915;52.540;13.604;2023-06-19T07:05:19;13.47;;;12.13;;
31282;SDS011;17915;52.540;13.604;2023-06-19T07:07:45;13.53;;;12.27;;
31282;SDS011;17915;52.540;13.604;2023-06-19T07:10:10;16.57;;;12.43;;
31282;SDS011;17915;52.540;13.604;2023-06-19T07:12:43;21.40;;;14.30;;
31282;SDS011;17915;52.540;13.604;2023-06-19T07:15:09;14.43;;;12.98;;
31282;SDS011;17915;52.540;13.604;2023-06-19T07:17:35;19.97;;;12.97;;
31282;SDS011;17915;52.540;13.604;2023-06-19T07:20:00;12.57;;;11.37;;
31282;SDS011;17915;52.540;13.604;2023-06-19T07:22:25;12.83;;;11.77;;
31282;SDS011;17915;52.540;13.604;2023-06-19T07:24:51;17.33;;;12.57;;
31282;SDS011;17915;52.540;13.604;2023-06-19T07:27:16;14.03;;;12.33;;
31282;SDS011;17915;52.540;13.604;2023-06-19T07:29:43;14.40;;;12.87;;
31282;SDS011;17915;52.540;13.604;2023-06-19T07:32:09;13.68;;;12.50;;
31282;SDS011;17915;52.540;13.604;2023-06-19T07:37:00;16.70;;;10.90;;
31282;SDS011;17915;52.540;13.604;2023-06-19T07:39:26;14.60;;;13.13;;
31282;SDS011;17915;52.540;13.604;2023-06-19T07:41:51;12.90;;;11.70;;
31282;SDS011;17915;52.540;13.604;2023-06-19T07:44:17;12.97;;;11.90;;
31282;SDS011;17915;52.540;13.604;2023-06-19T07:46:43;14.52;;;13.15;;
31282;SDS011;17915;52.540;13.604;2023-06-19T07:49:08;15.15;;;11.80;;
31282;SDS011;17915;52.540;13.604;2023-06-19T07:51:34;14.10;;;12.80;;
31282;SDS011;17915;52.540;13.604;2023-06-19T07:53:59;19.85;;;12.30;;
31282;SDS011;17915;52.540;13.604;2023-06-19T07:56:25;11.10;;;10.10;;
31282;SDS011;17915;52.540;13.604;2023-06-19T07:58:50;12.70;;;11.65;;
31282;SDS011;17915;52.540;13.604;2023-06-19T08:01:15;13.40;;;11.33;;
31282;SDS011;17915;52.540;13.604;2023-06-19T08:03:42;16.95;;;10.60;;
31282;SDS011;17915;52.540;13.604;2023-06-19T08:06:07;11.43;;;10.32;;
31282;SDS011;17915;52.540;13.604;2023-06-19T08:08:32;11.53;;;10.63;;
31282;SDS011;17915;52.540;13.604;2023-06-19T08:10:58;12.33;;;10.83;;
31282;SDS011;17915;52.540;13.604;2023-06-19T08:13:23;19.93;;;11.03;;
31282;SDS011;17915;52.540;13.604;2023-06-19T08:15:48;12.88;;;11.13;;
31282;SDS011;17915;52.540;13.604;2023-06-19T08:18:14;12.70;;;11.40;;
31282;SDS011;17915;52.540;13.604;2023-06-19T08:20:39;12.00;;;10.93;;
31282;SDS011;17915;52.540;13.604;2023-06-19T08:23:05;11.33;;;10.33;;
31282;SDS011;17915;52.540;13.604;2023-06-19T08:25:30;11.70;;;10.47;;
31282;SDS011;17915;52.540;13.604;2023-06-19T08:27:56;12.25;;;11.07;;
31282;SDS011;17915;52.540;13.604;2023-06-19T08:30:21;14.57;;;10.88;;
31282;SDS011;17915;52.540;13.604;2023-06-19T08:32:46;17.77;;;11.40;;
31282;SDS011;17915;52.540;13.604;2023-06-19T08:35:13;11.75;;;10.55;;
31282;SDS011;17915;52.540;13.604;2023-06-19T08:37:40;14.18;;;11.02;;
31282;SDS011;17915;52.540;13.604;2023-06-19T08:40:05;11.10;;;10.20;;
31282;SDS011;17915;52.540;13.604;2023-06-19T08:42:34;10.50;;;9.65;;
31282;SDS011;17915;52.540;13.604;2023-06-19T08:45:00;11.85;;;10.98;;
31282;SDS011;17915;52.540;13.604;2023-06-19T08:47:29;16.25;;;10.77;;
31282;SDS011;17915;52.540;13.604;2023-06-19T08:49:56;12.60;;;10.88;;
31282;SDS011;17915;52.540;13.604;2023-06-19T08:52:23;12.73;;;11.63;;
31282;SDS011;17915;52.540;13.604;2023-06-19T08:54:48;15.47;;;10.57;;
31282;SDS011;17915;52.540;13.604;2023-06-19T08:57:14;12.37;;;11.13;;
31282;SDS011;17915;52.540;13.604;2023-06-19T08:59:40;13.55;;;10.90;;
31282;SDS011;17915;52.540;13.604;2023-06-19T09:02:12;12.70;;;10.48;;
31282;SDS011;17915;52.540;13.604;2023-06-19T09:04:38;17.17;;;10.57;;
31282;SDS011;17915;52.540;13.604;2023-06-19T09:07:03;12.07;;;10.77;;
31282;SDS011;17915;52.540;13.604;2023-06-19T09:09:29;17.00;;;10.48;;
31282;SDS011;17915;52.540;13.604;2023-06-19T09:14:34;12.90;;;11.35;;
31282;SDS011;17915;52.540;13.604;2023-06-19T09:17:01;12.52;;;11.55;;
31282;SDS011;17915;52.540;13.604;2023-06-19T09:19:27;14.00;;;12.60;;
31282;SDS011;17915;52.540;13.604;2023-06-19T09:21:53;11.55;;;10.55;;
31282;SDS011;17915;52.540;13.604;2023-06-19T09:24:18;11.97;;;10.80;;
31282;SDS011;17915;52.540;13.604;2023-06-19T09:26:44;13.15;;;11.95;;
31282;SDS011;17915;52.540;13.604;2023-06-19T09:29:10;12.97;;;11.77;;
31282;SDS011;17915;52.540;13.604;2023-06-19T09:31:40;11.98;;;10.88;;
31282;SDS011;17915;52.540;13.604;2023-06-19T09:34:06;13.43;;;11.68;;
31282;SDS011;17915;52.540;13.604;2023-06-19T09:36:32;12.32;;;11.32;;
31282;SDS011;17915;52.540;13.604;2023-06-19T09:38:59;11.95;;;10.68;;
31282;SDS011;17915;52.540;13.604;2023-06-19T09:41:25;12.93;;;11.73;;
31282;SDS011;17915;52.540;13.604;2023-06-19T09:43:51;12.90;;;11.60;;
31282;SDS011;17915;52.540;13.604;2023-06-19T09:46:22;12.48;;;11.18;;
31282;SDS011;17915;52.540;13.604;2023-06-19T09:48:50;13.48;;;12.27;;
31282;SDS011;17915;52.540;13.604;2023-06-19T09:51:20;12.82;;;10.85;;
31282;SDS011;17915;52.540;13.604;2023-06-19T09:53:48;12.63;;;11.48;;
31282;SDS011;17915;52.540;13.604;2023-06-19T09:56:14;11.82;;;10.93;;
31282;SDS011;17915;52.540;13.604;2023-06-19T09:58:41;12.65;;;11.55;;
31282;SDS011;17915;52.540;13.604;2023-06-19T10:01:08;13.25;;;12.10;;
31282;SDS011;17915;52.540;13.604;2023-06-19T10:03:34;12.65;;;11.45;;
31282;SDS011;17915;52.540;13.604;2023-06-19T10:06:01;15.27;;;12.00;;
31282;SDS011;17915;52.540;13.604;2023-06-19T10:08:29;13.75;;;12.25;;
31282;SDS011;17915;52.540;13.604;2023-06-19T10:10:55;16.35;;;11.52;;
31282;SDS011;17915;52.540;13.604;2023-06-19T10:13:22;11.32;;;10.52;;
31282;SDS011;17915;52.540;13.604;2023-06-19T10:15:59;14.77;;;10.65;;
31282;SDS011;17915;52.540;13.604;2023-06-19T10:18:25;15.95;;;12.35;;
31282;SDS011;17915;52.540;13.604;2023-06-19T10:20:51;12.68;;;11.50;;
31282;SDS011;17915;52.540;13.604;2023-06-19T10:23:18;12.38;;;11.00;;
31282;SDS011;17915;52.540;13.604;2023-06-19T10:25:47;11.35;;;10.40;;
31282;SDS011;17915;52.540;13.604;2023-06-19T10:28:30;14.77;;;12.05;;
31282;SDS011;17915;52.540;13.604;2023-06-19T10:33:24;12.43;;;11.15;;
31282;SDS011;17915;52.540;13.604;2023-06-19T10:35:51;12.27;;;11.18;;
31282;SDS011;17915;52.540;13.604;2023-06-19T10:40:42;12.77;;;11.60;;
31282;SDS011;17915;52.540;13.604;2023-06-19T10:43:09;17.63;;;11.90;;
31282;SDS011;17915;52.540;13.604;2023-06-19T10:45:35;18.35;;;13.68;;
31282;SDS011;17915;52.540;13.604;2023-06-19T10:50:27;12.65;;;11.50;;
31282;SDS011;17915;52.540;13.604;2023-06-19T10:55:20;14.40;;;11.27;;
31282;SDS011;17915;52.540;13.604;2023-06-19T11:00:11;16.25;;;11.43;;
31282;SDS011;17915;52.540;13.604;2023-06-19T11:02:59;12.55;;;11.45;;
31282;SDS011;17915;52.540;13.604;2023-06-19T11:05:25;12.15;;;11.10;;
31282;SDS011;17915;52.540;13.604;2023-06-19T11:07:55;12.98;;;11.68;;
31282;SDS011;17915;52.540;13.604;2023-06-19T11:10:22;14.55;;;13.30;;
31282;SDS011;17915;52.540;13.604;2023-06-19T11:12:49;12.90;;;11.63;;
31282;SDS011;17915;52.540;13.604;2023-06-19T11:15:33;12.65;;;11.10;;
31282;SDS011;17915;52.540;13.604;2023-06-19T11:17:59;12.85;;;11.18;;
31282;SDS011;17915;52.540;13.604;2023-06-19T11:20:26;15.85;;;10.07;;
31282;SDS011;17915;52.540;13.604;2023-06-19T11:25:33;13.52;;;10.80;;
31282;SDS011;17915;52.540;13.604;2023-06-19T11:28:03;14.05;;;9.43;;
31282;SDS011;17915;52.540;13.604;2023-06-19T11:30:38;13.75;;;10.15;;
31282;SDS011;17915;52.540;13.604;2023-06-19T11:35:40;9.90;;;8.98;;
31282;SDS011;17915;52.540;13.604;2023-06-19T11:38:05;11.30;;;10.20;;
31282;SDS011;17915;52.540;13.604;2023-06-19T11:43:03;10.73;;;9.73;;
31282;SDS011;17915;52.540;13.604;2023-06-19T11:47:54;12.50;;;9.73;;
31282;SDS011;17915;52.540;13.604;2023-06-19T11:52:46;10.43;;;9.57;;
31282;SDS011;17915;52.540;13.604;2023-06-19T11:57:38;9.98;;;9.07;;
31282;SDS011;17915;52.540;13.604;2023-06-19T12:00:03;13.85;;;10.05;;
31282;SDS011;17915;52.540;13.604;2023-06-19T12:02:32;10.40;;;9.65;;
31282;SDS011;17915;52.540;13.604;2023-06-19T12:04:58;19.63;;;10.10;;
31282;SDS011;17915;52.540;13.604;2023-06-19T12:07:24;11.18;;;10.18;;
31282;SDS011;17915;52.540;13.604;2023-06-19T12:09:50;10.85;;;9.85;;
31282;SDS011;17915;52.540;13.604;2023-06-19T12:12:15;13.82;;;11.35;;
31282;SDS011;17915;52.540;13.604;2023-06-19T12:14:41;13.77;;;11.75;;
31282;SDS011;17915;52.540;13.604;2023-06-19T12:17:07;10.10;;;9.30;;
31282;SDS011;17915;52.540;13.604;2023-06-19T12:19:32;10.45;;;9.55;;
31282;SDS011;17915;52.540;13.604;2023-06-19T12:21:57;10.90;;;9.98;;
31282;SDS011;17915;52.540;13.604;2023-06-19T12:24:24;9.45;;;8.75;;
31282;SDS011;17915;52.540;13.604;2023-06-19T12:26:49;9.35;;;8.55;;
31282;SDS011;17915;52.540;13.604;2023-06-19T12:29:14;10.13;;;9.13;;
31282;SDS011;17915;52.540;13.604;2023-06-19T12:31:40;13.98;;;8.68;;
31282;SDS011;17915;52.540;13.604;2023-06-19T12:34:05;10.57;;;9.55;;
31282;SDS011;17915;52.540;13.604;2023-06-19T12:36:31;8.50;;;7.90;;
31282;SDS011;17915;52.540;13.604;2023-06-19T12:38:57;9.23;;;8.63;;
31282;SDS011;17915;52.540;13.604;2023-06-19T12:41:23;8.38;;;7.82;;
31282;SDS011;17915;52.540;13.604;2023-06-19T12:43:49;13.63;;;9.15;;
31282;SDS011;17915;52.540;13.604;2023-06-19T12:46:14;9.98;;;9.18;;
31282;SDS011;17915;52.540;13.604;2023-06-19T12:48:42;8.95;;;8.05;;
31282;SDS011;17915;52.540;13.604;2023-06-19T12:51:08;9.85;;;9.05;;
31282;SDS011;17915;52.540;13.604;2023-06-19T12:53:33;8.18;;;7.68;;
31282;SDS011;17915;52.540;13.604;2023-06-19T12:55:59;9.50;;;8.52;;
31282;SDS011;17915;52.540;13.604;2023-06-19T12:58:25;10.20;;;9.30;;
31282;SDS011;17915;52.540;13.604;2023-06-19T13:00:51;9.43;;;8.73;;
31282;SDS011;17915;52.540;13.604;2023-06-19T13:03:18;9.80;;;8.98;;
31282;SDS011;17915;52.540;13.604;2023-06-19T13:05:43;9.15;;;8.55;;
31282;SDS011;17915;52.540;13.604;2023-06-19T13:08:09;11.23;;;8.98;;
31282;SDS011;17915;52.540;13.604;2023-06-19T13:10:34;9.85;;;8.90;;
31282;SDS011;17915;52.540;13.604;2023-06-19T13:13:00;11.38;;;9.75;;
31282;SDS011;17915;52.540;13.604;2023-06-19T13:15:25;10.98;;;8.38;;
31282;SDS011;17915;52.540;13.604;2023-06-19T13:17:52;11.20;;;9.50;;
31282;SDS011;17915;52.540;13.604;2023-06-19T13:22:43;9.15;;;8.40;;
31282;SDS011;17915;52.540;13.604;2023-06-19T13:25:08;8.65;;;8.02;;
31282;SDS011;17915;52.540;13.604;2023-06-19T13:30:00;8.90;;;8.30;;
31282;SDS011;17915;52.540;13.604;2023-06-19T13:32:25;8.77;;;8.07;;
31282;SDS011;17915;52.540;13.604;2023-06-19T13:37:17;8.30;;;7.70;;
31282;SDS011;17915;52.540;13.604;2023-06-19T13:42:08;12.75;;;9.40;;
31282;SDS011;17915;52.540;13.604;2023-06-19T13:44:33;11.50;;;7.97;;
31282;SDS011;17915;52.540;13.604;2023-06-19T13:46:59;12.20;;;8.05;;
31282;SDS011;17915;52.540;13.604;2023-06-19T13:49:24;8.60;;;8.00;;
31282;SDS011;17915;52.540;13.604;2023-06-19T13:51:49;9.98;;;9.05;;
31282;SDS011;17915;52.540;13.604;2023-06-19T13:54:15;10.60;;;9.70;;
31282;SDS011;17915;52.540;13.604;2023-06-19T13:59:07;9.40;;;8.52;;
31282;SDS011;17915;52.540;13.604;2023-06-19T14:01:33;8.05;;;7.32;;
31282;SDS011;17915;52.540;13.604;2023-06-19T14:06:24;9.15;;;8.43;;
31282;SDS011;17915;52.540;13.604;2023-06-19T14:08:50;9.77;;;8.93;;
31282;SDS011;17915;52.540;13.604;2023-06-19T14:13:41;11.35;;;10.30;;
31282;SDS011;17915;52.540;13.604;2023-06-19T14:16:06;9.13;;;8.52;;
31282;SDS011;17915;52.540;13.604;2023-06-19T14:18:32;8.32;;;7.72;;
31282;SDS011;17915;52.540;13.604;2023-06-19T14:23:23;9.60;;;8.68;;
31282;SDS011;17915;52.540;13.604;2023-06-19T14:25:49;9.05;;;8.25;;
31282;SDS011;17915;52.540;13.604;2023-06-19T14:28:14;18.42;;;9.20;;
31282;SDS011;17915;52.540;13.604;2023-06-19T14:30:40;9.13;;;8.23;;
31282;SDS011;17915;52.540;13.604;2023-06-19T14:33:05;15.07;;;9.32;;
31282;SDS011;17915;52.540;13.604;2023-06-19T14:35:35;11.77;;;10.13;;
31282;SDS011;17915;52.540;13.604;2023-06-19T14:38:00;11.27;;;10.18;;
31282;SDS011;17915;52.540;13.604;2023-06-19T14:40:26;10.55;;;9.43;;
31282;SDS011;17915;52.540;13.604;2023-06-19T14:42:51;8.48;;;7.90;;
31282;SDS011;17915;52.540;13.604;2023-06-19T14:45:17;10.43;;;9.32;;
31282;SDS011;17915;52.540;13.604;2023-06-19T14:47:42;9.70;;;8.82;;
31282;SDS011;17915;52.540;13.604;2023-06-19T14:50:07;10.25;;;8.95;;
31282;SDS011;17915;52.540;13.604;2023-06-19T14:52:33;10.27;;;9.27;;
31282;SDS011;17915;52.540;13.604;2023-06-19T14:54:58;10.63;;;9.63;;
31282;SDS011;17915;52.540;13.604;2023-06-19T14:57:24;10.02;;;9.32;;
31282;SDS011;17915;52.540;13.604;2023-06-19T14:59:50;14.85;;;9.70;;
31282;SDS011;17915;52.540;13.604;2023-06-19T15:02:15;10.88;;;9.98;;
31282;SDS011;17915;52.540;13.604;2023-06-19T15:04:41;10.23;;;9.32;;
31282;SDS011;17915;52.540;13.604;2023-06-19T15:07:06;9.90;;;9.07;;